Unicom:                    122.8

AWOS:                  118.275

Elevation           1458’ MSL

TPA:                   2500’ MSL

06/24:         5003’ L   75’ W

PAPI:       06/Left     24/Left

(Operate lights on unicom freq.)

Traffic Pattern: Left

Beacon: Sunset to Sunrise

Windsock: yes, lighted

Segmented Circle: No

 

Cleveland Center: 126.72/291.65

FSS: Altoona

[Source: ADDS]
METAR
KFKL 210909Z AUTO 29012G19KT 10SM -RA FEW034 SCT048 SCT110 24/22 A2994 RMK AO2 TSE03RAB07 P0000 =
KFKL 210839Z 2109/2206 28004KT P6SM BKN090 TEMPO 2109/2110 2SM -TSRA BKN035CB FM211600 28005KT P6SM BKN035 FM212300 32004KT P6SM SCT050
TAF
KFKL 210839Z 2109/2206 28004KT P6SM BKN090 TEMPO 2109/2110 2SM -TSRA BKN035CB FM211600 28005KT P6SM BKN035 FM212300 32004KT P6SM SCT050 =
[Source: ADDS]
METAR
KDUJ 210853Z AUTO 24006KT 4SM BR SCT110 22/21 A2993 RMK AO2 SLP119 T02170206 56001 $ =
KDUJ 210520Z 2106/2206 28004KT P6SM BKN250 TEMPO 2109/2112 3SM BR SCT008 FM211600 28005KT P6SM BKN035 FM212300 30006KT P6SM SCT040
TAF
KDUJ 210520Z 2106/2206 28004KT P6SM BKN250 TEMPO 2109/2112 3SM BR SCT008 FM211600 28005KT P6SM BKN035 FM212300 30006KT P6SM SCT040 =

Airport Information. 

Runway Length: 5003ft x 75ft

Runways 6/24

Traffic Pattern: Left

PAPI’s: 2 light PAPI on left of both 6/24

TPA: 2500 msl

Field Elevation: 1458 msl

Surface: Asphalt

Beacon: Operates Sunset-Sunrise

Pilot Controlled Lighting:  yes 122.8

 

Fuel:

Jet-A w/prist

100 LL

Center point fueling available upon request.

 

Unicom Frequency: 122.8

AWOS Frequency: 118.27  (814-227-2899)

 

Cleveland Center: 126.72 (440-774-0442)

 

GPS Approach Plates for 6/24 download here: http://www.airnav.com/airport/KAXQ

[Source: ADDS]
METAR
KFKL 210909Z AUTO 29012G19KT 10SM -RA FEW034 SCT048 SCT110 24/22 A2994 RMK AO2 TSE03RAB07 P0000 =
KFKL 210839Z 2109/2206 28004KT P6SM BKN090 TEMPO 2109/2110 2SM -TSRA BKN035CB FM211600 28005KT P6SM BKN035 FM212300 32004KT P6SM SCT050
TAF
KFKL 210839Z 2109/2206 28004KT P6SM BKN090 TEMPO 2109/2110 2SM -TSRA BKN035CB FM211600 28005KT P6SM BKN035 FM212300 32004KT P6SM SCT050 =
[Source: ADDS]
METAR
KDUJ 210853Z AUTO 24006KT 4SM BR SCT110 22/21 A2993 RMK AO2 SLP119 T02170206 56001 $ =
KDUJ 210520Z 2106/2206 28004KT P6SM BKN250 TEMPO 2109/2112 3SM BR SCT008 FM211600 28005KT P6SM BKN035 FM212300 30006KT P6SM SCT040
TAF
KDUJ 210520Z 2106/2206 28004KT P6SM BKN250 TEMPO 2109/2112 3SM BR SCT008 FM211600 28005KT P6SM BKN035 FM212300 30006KT P6SM SCT040 =